Time;durP1;ratioP1;P1;durP2;ratioP2;P2;SDS_P1;SDS_P2;PMS_P1;PMS_P2;Temp;Humidity;BMP_temperature;BMP_pressure;BME280_temperature;BME280_humidity;BME280_pressure;Samples;Min_cycle;Max_cycle;Signal;HPM_P1;HPM_P2
2021/10/01 00:01:12;;;;;;;1.47;1.32;;;7.10;99.90;;;;;;1943650;73;21033;-73
2021/10/01 00:03:38;;;;;;;2.45;1.40;;;7.20;99.90;;;;;;1942352;73;21089;-73
2021/10/01 00:06:04;;;;;;;1.90;1.37;;;7.20;99.90;;;;;;1950404;73;21126;-74
2021/10/01 00:08:31;;;;;;;9.68;1.65;;;7.20;99.90;;;;;;1948511;72;21224;-74
2021/10/01 00:10:58;;;;;;;2.85;1.50;;;7.10;99.90;;;;;;1941405;73;21138;-73
2021/10/01 00:13:24;;;;;;;3.35;1.60;;;7.10;99.90;;;;;;1942649;73;21060;-73
2021/10/01 00:15:50;;;;;;;4.50;1.70;;;7.10;99.90;;;;;;1944718;73;21117;-73
2021/10/01 00:18:16;;;;;;;2.35;1.85;;;7.00;99.90;;;;;;1945281;73;21063;-74
2021/10/01 00:20:42;;;;;;;2.65;1.57;;;7.00;99.90;;;;;;1949128;73;21063;-74
2021/10/01 00:23:08;;;;;;;5.22;1.62;;;7.00;99.90;;;;;;1950855;72;21136;-74
2021/10/01 00:25:34;;;;;;;1.98;1.57;;;7.00;99.90;;;;;;1949794;73;21212;-74
2021/10/01 00:28:01;;;;;;;7.87;1.67;;;7.00;99.90;;;;;;1949532;73;21080;-74
2021/10/01 00:30:27;;;;;;;3.65;1.67;;;7.00;99.90;;;;;;1950775;72;21584;-75
2021/10/01 00:32:53;;;;;;;1.90;1.67;;;7.00;99.90;;;;;;1948851;73;21550;-73
2021/10/01 00:35:19;;;;;;;2.98;1.65;;;7.00;99.90;;;;;;1943301;72;21068;-74
2021/10/01 00:37:45;;;;;;;3.35;1.57;;;7.00;99.90;;;;;;1949509;72;21080;-74
2021/10/01 00:40:11;;;;;;;2.08;1.50;;;7.00;99.90;;;;;;1938566;72;21073;-74
2021/10/01 00:42:37;;;;;;;2.65;1.42;;;6.90;99.90;;;;;;1941131;73;21056;-74
2021/10/01 00:45:04;;;;;;;3.17;1.30;;;6.90;99.90;;;;;;1944835;73;21153;-74
2021/10/01 00:47:30;;;;;;;3.52;1.42;;;7.00;99.90;;;;;;1952821;73;21040;-74
2021/10/01 00:49:56;;;;;;;4.67;1.47;;;6.90;99.90;;;;;;1952480;72;21049;-73
2021/10/01 00:52:22;;;;;;;2.55;1.47;;;6.90;99.90;;;;;;1948480;72;21032;-74
2021/10/01 00:54:48;;;;;;;3.95;1.65;;;6.90;99.90;;;;;;1944016;73;21059;-74
2021/10/01 00:57:14;;;;;;;4.53;1.30;;;6.80;99.90;;;;;;1947215;72;21157;-74
2021/10/01 00:59:40;;;;;;;1.30;1.17;;;6.80;99.90;;;;;;1950713;72;21158;-73
2021/10/01 01:02:07;;;;;;;2.98;1.67;;;6.80;99.90;;;;;;1948783;73;21149;-73
2021/10/01 01:04:33;;;;;;;6.55;1.50;;;6.80;99.90;;;;;;1944442;73;21038;-74
2021/10/01 01:07:00;;;;;;;2.90;1.90;;;6.80;99.90;;;;;;1943151;73;21126;-74
2021/10/01 01:09:26;;;;;;;1.80;1.52;;;6.80;99.90;;;;;;1944686;73;21247;-74
2021/10/01 01:11:52;;;;;;;4.70;1.37;;;6.70;99.90;;;;;;1945389;73;21145;-73
2021/10/01 01:14:18;;;;;;;2.35;1.70;;;6.70;99.90;;;;;;1948375;73;21069;-74
2021/10/01 01:16:44;;;;;;;1.47;1.37;;;6.70;99.90;;;;;;1949404;73;21072;-74
2021/10/01 01:19:10;;;;;;;3.12;1.72;;;6.70;99.90;;;;;;1944962;73;21052;-74
2021/10/01 01:21:37;;;;;;;3.83;1.30;;;6.70;99.90;;;;;;1945486;72;21072;-74
2021/10/01 01:24:03;;;;;;;2.83;1.57;;;6.70;99.90;;;;;;1949162;73;21025;-73
2021/10/01 01:26:29;;;;;;;2.60;1.75;;;6.70;99.90;;;;;;1944771;73;22999;-73
2021/10/01 01:28:55;;;;;;;6.33;1.40;;;6.60;99.90;;;;;;1949961;73;21610;-74
2021/10/01 01:31:22;;;;;;;5.97;1.70;;;6.60;99.90;;;;;;1948271;72;21485;-74
2021/10/01 01:33:48;;;;;;;2.25;1.35;;;6.60;99.90;;;;;;1955326;73;21075;-74
2021/10/01 01:36:14;;;;;;;2.65;1.65;;;6.60;99.90;;;;;;1948304;73;21072;-74
2021/10/01 01:38:40;;;;;;;5.45;1.47;;;6.60;99.90;;;;;;1949424;73;21059;-73
2021/10/01 01:41:06;;;;;;;1.90;1.20;;;6.60;99.90;;;;;;1953409;73;21479;-74
2021/10/01 01:43:32;;;;;;;4.22;1.95;;;6.50;99.90;;;;;;1944454;73;21140;-74
2021/10/01 01:45:58;;;;;;;1.62;1.50;;;6.40;99.90;;;;;;1946121;73;21071;-74
2021/10/01 01:48:25;;;;;;;1.65;1.15;;;6.40;99.90;;;;;;1949465;72;21133;-74
2021/10/01 01:50:51;;;;;;;3.80;1.32;;;6.40;99.90;;;;;;1949036;73;21129;-74
2021/10/01 01:53:17;;;;;;;2.22;1.52;;;6.40;99.90;;;;;;1942210;73;21064;-74
2021/10/01 01:55:44;;;;;;;1.77;1.40;;;6.40;99.90;;;;;;1941761;73;21084;-74
2021/10/01 01:58:10;;;;;;;6.58;1.60;;;6.40;99.90;;;;;;1952871;73;21467;-74
2021/10/01 02:00:36;;;;;;;1.85;1.42;;;6.40;99.90;;;;;;1950160;73;21024;-72
2021/10/01 02:03:03;;;;;;;3.17;1.50;;;6.40;99.90;;;;;;1948919;73;21080;-74
2021/10/01 02:05:29;;;;;;;3.15;1.40;;;6.40;99.90;;;;;;1941841;72;21142;-74
2021/10/01 02:07:55;;;;;;;4.03;1.55;;;6.40;99.90;;;;;;1946878;72;21247;-74
2021/10/01 02:10:21;;;;;;;2.00;1.20;;;6.40;99.90;;;;;;1946806;73;21060;-74
2021/10/01 02:12:47;;;;;;;1.80;1.25;;;6.40;99.90;;;;;;1944922;73;21049;-74
2021/10/01 02:15:13;;;;;;;2.40;1.25;;;6.40;99.90;;;;;;1946257;73;21051;-74
2021/10/01 02:17:39;;;;;;;2.27;1.40;;;6.40;99.90;;;;;;1951817;72;21130;-74
2021/10/01 02:20:05;;;;;;;4.78;1.67;;;6.30;99.90;;;;;;1946754;73;21056;-74
2021/10/01 02:22:32;;;;;;;2.58;1.40;;;6.30;99.90;;;;;;1949395;73;21464;-74
2021/10/01 02:24:58;;;;;;;1.65;1.17;;;6.30;99.90;;;;;;1951317;72;21464;-74
2021/10/01 02:27:24;;;;;;;3.02;1.40;;;6.30;99.90;;;;;;1943707;73;21518;-74
2021/10/01 02:29:50;;;;;;;4.40;1.40;;;6.20;99.90;;;;;;1945304;73;21029;-74
2021/10/01 02:32:16;;;;;;;2.70;1.50;;;6.20;99.90;;;;;;1948094;73;21064;-74
2021/10/01 02:34:42;;;;;;;3.25;1.60;;;6.20;99.90;;;;;;1949109;73;21133;-75
2021/10/01 02:37:08;;;;;;;3.77;1.95;;;6.20;99.90;;;;;;1935330;73;21155;-75
2021/10/01 02:39:34;;;;;;;1.57;1.30;;;6.20;99.90;;;;;;1946248;73;21060;-74
2021/10/01 02:42:02;;;;;;;2.85;1.57;;;6.10;99.90;;;;;;1944840;73;21073;-73
2021/10/01 02:44:28;;;;;;;3.17;1.52;;;6.10;99.90;;;;;;1945617;73;21149;-74
2021/10/01 02:46:54;;;;;;;5.28;1.65;;;6.10;99.90;;;;;;1946264;72;21060;-74
2021/10/01 02:49:20;;;;;;;2.25;1.40;;;6.10;99.90;;;;;;1942713;72;21025;-74
2021/10/01 02:51:46;;;;;;;5.33;1.90;;;6.10;99.90;;;;;;1953467;72;21071;-74
2021/10/01 02:54:12;;;;;;;4.97;1.22;;;6.10;99.90;;;;;;1945553;73;21092;-74
2021/10/01 02:56:38;;;;;;;3.00;1.60;;;6.10;99.90;;;;;;1946355;73;21133;-74
2021/10/01 02:59:05;;;;;;;1.87;1.55;;;6.10;99.90;;;;;;1950204;72;21061;-74
2021/10/01 03:01:31;;;;;;;2.08;1.60;;;6.10;99.90;;;;;;1948978;72;21042;-74
2021/10/01 03:03:57;;;;;;;6.78;1.42;;;6.10;99.90;;;;;;1947753;73;21474;-75
2021/10/01 03:06:23;;;;;;;1.80;1.40;;;6.00;99.90;;;;;;1945983;73;21549;-75
2021/10/01 03:08:50;;;;;;;2.47;1.57;;;6.10;99.90;;;;;;1946711;72;21541;-74
2021/10/01 03:11:17;;;;;;;4.42;1.62;;;6.10;99.90;;;;;;1946912;73;21182;-72
2021/10/01 03:13:43;;;;;;;1.60;1.42;;;6.00;99.90;;;;;;1950644;72;21538;-75
2021/10/01 03:16:09;;;;;;;3.55;1.52;;;6.00;99.90;;;;;;1954119;73;21129;-74
2021/10/01 03:18:35;;;;;;;3.05;1.40;;;6.10;99.90;;;;;;1948450;72;21126;-73
2021/10/01 03:21:01;;;;;;;5.45;1.75;;;6.00;99.90;;;;;;1943707;73;21028;-74
2021/10/01 03:23:27;;;;;;;2.95;1.50;;;6.00;99.90;;;;;;1946966;73;21067;-74
2021/10/01 03:25:53;;;;;;;2.52;1.47;;;6.00;99.90;;;;;;1949585;72;21142;-74
2021/10/01 03:28:20;;;;;;;2.90;1.55;;;6.00;99.90;;;;;;1945105;72;21142;-74
2021/10/01 03:30:47;;;;;;;1.45;1.30;;;6.00;99.90;;;;;;1949512;73;21475;-74
2021/10/01 03:33:13;;;;;;;2.95;1.95;;;6.00;99.90;;;;;;1941967;73;21603;-74
2021/10/01 03:35:40;;;;;;;3.55;1.98;;;5.90;99.90;;;;;;1949124;73;21244;-74
2021/10/01 03:38:06;;;;;;;3.55;1.95;;;5.90;99.90;;;;;;1952719;73;21037;-71
2021/10/01 03:40:32;;;;;;;4.58;2.22;;;5.90;99.90;;;;;;1947609;73;21071;-75
2021/10/01 03:42:58;;;;;;;2.45;1.60;;;5.90;99.90;;;;;;1944545;72;21500;-74
2021/10/01 03:45:25;;;;;;;3.62;1.85;;;5.90;99.90;;;;;;1948945;73;21507;-72
2021/10/01 03:47:51;;;;;;;6.12;2.08;;;5.90;99.90;;;;;;1949352;73;21075;-73
2021/10/01 03:50:17;;;;;;;2.50;1.52;;;5.80;99.90;;;;;;1946769;73;21052;-73
2021/10/01 03:52:44;;;;;;;1.77;1.60;;;5.80;99.90;;;;;;1952436;72;21068;-73
2021/10/01 03:55:14;;;;;;;3.75;1.47;;;5.80;99.90;;;;;;1945227;73;21525;-73
2021/10/01 03:57:38;;;;;;;2.50;1.50;;;5.80;99.90;;;;;;1943419;73;21199;-73
2021/10/01 04:00:05;;;;;;;3.08;1.90;;;5.80;99.90;;;;;;1946415;72;21137;-73
2021/10/01 04:02:31;;;;;;;2.98;1.72;;;5.70;99.90;;;;;;1952450;72;21083;-74
2021/10/01 04:04:57;;;;;;;5.42;1.92;;;5.70;99.90;;;;;;1948361;73;21060;-72
2021/10/01 04:07:23;;;;;;;2.92;1.67;;;5.70;99.90;;;;;;1945768;73;21107;-72
2021/10/01 04:09:50;;;;;;;2.08;1.75;;;5.60;99.90;;;;;;1948855;73;21112;-73
2021/10/01 04:12:16;;;;;;;2.05;1.77;;;5.60;99.90;;;;;;1948981;73;21032;-73
2021/10/01 04:14:42;;;;;;;3.67;1.95;;;5.60;99.90;;;;;;1947844;72;21155;-73
2021/10/01 04:17:08;;;;;;;3.98;2.02;;;5.60;99.90;;;;;;1943619;73;21072;-73
2021/10/01 04:19:35;;;;;;;7.87;2.17;;;5.60;99.90;;;;;;1948169;73;21118;-73
2021/10/01 04:22:01;;;;;;;4.25;2.30;;;5.60;99.90;;;;;;1948346;73;21063;-73
2021/10/01 04:24:27;;;;;;;6.10;1.90;;;5.60;99.90;;;;;;1950930;73;21185;-74
2021/10/01 04:26:53;;;;;;;9.60;2.67;;;5.60;99.90;;;;;;1949903;73;21037;-73
2021/10/01 04:29:19;;;;;;;3.15;2.10;;;5.70;99.90;;;;;;1949061;72;21066;-73
2021/10/01 04:31:45;;;;;;;3.30;2.25;;;5.70;99.90;;;;;;1945393;73;21084;-73
2021/10/01 04:34:11;;;;;;;4.00;2.45;;;5.70;99.90;;;;;;1945839;73;21084;-74
2021/10/01 04:36:37;;;;;;;6.08;1.95;;;5.70;99.90;;;;;;1931450;73;21145;-74
2021/10/01 04:39:04;;;;;;;3.80;1.92;;;5.70;99.90;;;;;;1914975;73;21181;-74
2021/10/01 04:41:30;;;;;;;3.27;1.65;;;5.70;99.90;;;;;;1917463;73;21043;-74
2021/10/01 04:43:56;;;;;;;2.45;2.02;;;5.70;99.90;;;;;;1915831;73;21100;-73
2021/10/01 04:46:22;;;;;;;2.17;1.82;;;5.60;99.90;;;;;;1916268;73;21082;-73
2021/10/01 04:48:49;;;;;;;4.67;2.37;;;5.60;99.90;;;;;;1912732;73;21082;-73
2021/10/01 04:51:15;;;;;;;4.95;2.47;;;5.60;99.90;;;;;;1916741;73;21100;-73
2021/10/01 04:53:41;;;;;;;4.47;1.65;;;5.50;99.90;;;;;;1927581;73;21502;-73
2021/10/01 04:56:07;;;;;;;5.37;2.05;;;5.50;99.90;;;;;;1938023;73;21536;-73
2021/10/01 04:58:33;;;;;;;3.60;2.12;;;5.50;99.90;;;;;;1955222;72;21539;-74
2021/10/01 05:01:03;;;;;;;5.50;2.20;;;5.50;99.90;;;;;;1955728;72;21042;-73
2021/10/01 05:03:29;;;;;;;3.92;2.10;;;5.50;99.90;;;;;;1898620;74;21570;-75
2021/10/01 05:05:55;;;;;;;6.40;2.17;;;5.50;99.90;;;;;;1900509;74;21442;-74
2021/10/01 05:08:21;;;;;;;1.85;1.57;;;5.50;99.90;;;;;;1890090;73;21159;-74
2021/10/01 05:10:47;;;;;;;7.33;2.20;;;5.50;99.90;;;;;;1930958;73;21153;-74
2021/10/01 05:13:13;;;;;;;6.65;2.27;;;5.50;99.90;;;;;;1928823;73;21074;-73
2021/10/01 05:15:42;;;;;;;3.98;2.15;;;5.40;99.90;;;;;;1926916;73;21130;-73
2021/10/01 05:18:07;;;;;;;7.30;2.27;;;5.50;99.90;;;;;;1942510;73;21513;-73
2021/10/01 05:20:34;;;;;;;6.87;2.12;;;5.50;99.90;;;;;;1923529;73;21078;-73
2021/10/01 05:23:00;;;;;;;6.72;2.08;;;5.50;99.90;;;;;;1919765;73;21165;-73
2021/10/01 05:25:26;;;;;;;2.75;2.00;;;5.40;99.90;;;;;;1942747;73;21137;-73
2021/10/01 05:27:52;;;;;;;8.35;2.20;;;5.40;99.90;;;;;;1928598;73;21612;-73
2021/10/01 05:30:18;;;;;;;6.22;2.10;;;5.50;99.90;;;;;;1952321;72;21489;-72
2021/10/01 05:32:44;;;;;;;8.13;2.40;;;5.60;99.90;;;;;;1949778;72;21600;-72
2021/10/01 05:35:10;;;;;;;5.87;1.70;;;5.50;99.90;;;;;;1954620;72;21207;-73
2021/10/01 05:37:36;;;;;;;7.72;2.08;;;5.50;99.90;;;;;;1894210;74;21077;-73
2021/10/01 05:40:03;;;;;;;8.75;2.72;;;5.50;99.90;;;;;;1952349;72;21120;-73
2021/10/01 05:42:29;;;;;;;5.05;2.40;;;5.50;99.90;;;;;;1892302;74;21156;-74
2021/10/01 05:44:55;;;;;;;3.33;2.02;;;5.50;99.90;;;;;;1907475;74;21081;-75
2021/10/01 05:47:21;;;;;;;7.10;2.50;;;5.50;99.90;;;;;;1911218;73;21074;-78
2021/10/01 05:49:48;;;;;;;6.72;2.50;;;5.50;99.90;;;;;;1931010;73;21151;-75
2021/10/01 05:54:54;;;;;;;6.53;2.67;;;5.60;99.90;;;;;;1882597;73;21078;-75
2021/10/01 05:57:20;;;;;;;8.85;3.08;;;5.60;99.90;;;;;;1921492;73;21076;-76
2021/10/01 05:59:46;;;;;;;4.65;2.50;;;5.60;99.90;;;;;;1937204;73;21144;-75
2021/10/01 06:02:13;;;;;;;36.90;3.20;;;5.60;99.90;;;;;;1929379;73;21157;-75
2021/10/01 06:07:24;;;;;;;15.65;2.67;;;5.60;99.90;;;;;;1919830;73;21098;-74
2021/10/01 06:09:50;;;;;;;6.08;2.95;;;5.60;99.90;;;;;;1948465;73;21038;-73
2021/10/01 06:12:16;;;;;;;6.55;2.60;;;5.70;99.90;;;;;;1949728;72;21194;-73
2021/10/01 06:14:42;;;;;;;7.47;2.55;;;5.80;99.90;;;;;;1946405;72;21139;-73
2021/10/01 06:17:09;;;;;;;5.15;2.85;;;5.80;99.90;;;;;;1951657;72;21134;-74
2021/10/01 06:19:36;;;;;;;6.87;3.20;;;5.80;99.90;;;;;;1926046;72;21078;-73
2021/10/01 06:22:02;;;;;;;12.03;3.20;;;5.80;99.90;;;;;;1933408;73;21150;-74
2021/10/01 06:24:29;;;;;;;3.42;2.40;;;5.90;99.90;;;;;;1919759;72;21159;-73
2021/10/01 06:26:55;;;;;;;8.33;2.72;;;6.00;99.90;;;;;;1904974;73;21147;-73
2021/10/01 06:29:21;;;;;;;7.40;2.67;;;6.10;99.90;;;;;;1911604;73;21086;-73
2021/10/01 06:31:47;;;;;;;7.62;2.92;;;6.10;99.90;;;;;;1923709;72;21287;-75
2021/10/01 06:34:14;;;;;;;4.28;2.42;;;6.10;99.90;;;;;;1938842;72;21525;-74
2021/10/01 06:36:40;;;;;;;4.42;2.58;;;6.20;99.90;;;;;;1928381;72;21451;-75
2021/10/01 06:39:06;;;;;;;14.45;2.52;;;6.30;99.90;;;;;;1913470;72;21640;-75
2021/10/01 06:41:32;;;;;;;5.87;2.90;;;6.30;99.90;;;;;;1910614;72;21494;-74
2021/10/01 06:44:00;;;;;;;5.08;2.40;;;6.30;99.90;;;;;;1936460;73;21071;-74
2021/10/01 08:18:53;;;;;;;3.33;2.25;;;10.70;99.90;;;;;;1937942;72;21104;-75
2021/10/01 08:21:10;;;;;;;4.42;2.47;;;10.90;99.90;;;;;;1918262;72;21070;-75
2021/10/01 08:23:36;;;;;;;5.08;2.17;;;11.30;99.90;;;;;;1919445;72;21659;-76
2021/10/01 08:26:02;;;;;;;6.90;2.42;;;11.90;99.90;;;;;;1909823;72;21086;-75
2021/10/01 08:28:28;;;;;;;4.12;1.98;;;12.40;99.90;;;;;;1938159;73;21063;-74
2021/10/01 08:30:56;;;;;;;7.10;1.77;;;12.70;99.90;;;;;;1930746;72;21078;-75
2021/10/01 08:33:22;;;;;;;3.55;2.00;;;12.50;99.90;;;;;;1924256;73;21616;-73
2021/10/01 08:35:48;;;;;;;2.83;1.62;;;12.70;99.90;;;;;;1913562;72;21075;-74
2021/10/01 08:38:14;;;;;;;5.30;1.75;;;13.00;99.90;;;;;;1915263;72;21076;-73
2021/10/01 08:40:41;;;;;;;9.38;2.37;;;12.80;99.90;;;;;;1913356;72;21168;-73
2021/10/01 08:43:07;;;;;;;6.62;2.45;;;12.70;99.90;;;;;;1921721;72;21066;-74
2021/10/01 08:45:33;;;;;;;4.28;1.82;;;13.10;99.90;;;;;;1906604;72;21090;-85
2021/10/01 08:47:59;;;;;;;2.35;1.80;;;13.60;99.90;;;;;;1915310;72;21040;-74
2021/10/01 08:50:25;;;;;;;3.85;1.98;;;13.70;99.90;;;;;;1926576;72;21085;-74
2021/10/01 08:52:51;;;;;;;3.05;1.92;;;13.80;99.90;;;;;;1906745;72;21074;-73
2021/10/01 08:55:17;;;;;;;5.62;2.12;;;13.70;99.90;;;;;;1916408;72;21052;-73
2021/10/01 08:57:43;;;;;;;4.35;2.35;;;14.00;99.90;;;;;;1920262;72;21262;-73
2021/10/01 09:00:10;;;;;;;7.08;2.12;;;13.80;99.90;;;;;;1918152;72;21083;-71
2021/10/01 09:02:36;;;;;;;4.12;1.57;;;13.60;99.90;;;;;;1916078;72;21066;-71
2021/10/01 09:05:02;;;;;;;6.08;2.08;;;13.60;99.90;;;;;;1921799;72;21087;-70
2021/10/01 09:07:28;;;;;;;4.10;1.57;;;13.90;99.90;;;;;;1950075;72;21065;-74
2021/10/01 09:09:54;;;;;;;5.35;1.90;;;14.30;99.90;;;;;;1927073;73;21155;-77
2021/10/01 09:12:20;;;;;;;2.33;1.60;;;15.10;99.90;;;;;;1949544;72;21039;-73
2021/10/01 09:14:46;;;;;;;2.42;1.47;;;15.70;99.90;;;;;;1940845;72;21066;-74
2021/10/01 09:17:12;;;;;;;5.65;2.10;;;15.50;99.90;;;;;;1936723;72;21073;-74
2021/10/01 09:19:39;;;;;;;2.75;1.62;;;15.50;99.90;;;;;;1933037;73;21071;-73
2021/10/01 09:22:05;;;;;;;2.87;1.40;;;15.70;99.90;;;;;;1936270;72;21486;-74
2021/10/01 09:24:32;;;;;;;5.87;2.05;;;15.50;99.90;;;;;;1930603;73;21476;-75
2021/10/01 09:26:58;;;;;;;3.33;1.70;;;15.70;99.90;;;;;;1949269;72;21156;-75
2021/10/01 09:29:26;;;;;;;6.97;1.85;;;16.50;99.90;;;;;;1931369;73;21192;-75
2021/10/01 09:31:52;;;;;;;5.72;1.95;;;17.00;99.90;;;;;;1942286;72;21074;-75
2021/10/01 09:34:18;;;;;;;3.58;1.85;;;16.80;99.90;;;;;;1943218;72;21077;-73
2021/10/01 09:36:49;;;;;;;3.95;2.00;;;16.70;99.90;;;;;;1925797;73;21038;-75
2021/10/01 09:39:15;;;;;;;7.00;2.10;;;16.80;99.90;;;;;;1931817;72;21090;-74
2021/10/01 09:41:41;;;;;;;2.33;1.62;;;17.50;99.90;;;;;;1942036;72;21073;-72
2021/10/01 09:44:07;;;;;;;4.42;1.52;;;17.40;99.90;;;;;;1930545;73;21149;-74
2021/10/01 09:46:33;;;;;;;2.42;1.80;;;17.10;99.90;;;;;;1939243;72;21176;-73
2021/10/01 09:48:59;;;;;;;5.65;1.72;;;17.10;99.90;;;;;;1932253;73;21183;-73
2021/10/01 09:51:26;;;;;;;5.10;2.20;;;18.00;99.90;;;;;;1931384;73;21486;-75
2021/10/01 09:53:52;;;;;;;3.37;1.50;;;18.70;99.90;;;;;;1942468;73;21482;-74
2021/10/01 09:56:18;;;;;;;2.55;1.37;;;18.00;99.90;;;;;;1933905;72;21118;-74
2021/10/01 09:58:45;;;;;;;1.75;1.40;;;18.20;99.90;;;;;;1931274;72;21030;-75
2021/10/01 10:01:11;;;;;;;4.12;1.52;;;18.60;99.90;;;;;;1925390;73;21148;-75
2021/10/01 10:03:37;;;;;;;3.47;1.52;;;19.00;99.90;;;;;;1934740;72;21066;-75
2021/10/01 10:06:03;;;;;;;3.45;1.72;;;19.50;99.90;;;;;;1927653;72;21090;-75
2021/10/01 10:08:29;;;;;;;5.65;1.80;;;19.20;99.90;;;;;;1947238;72;21518;-75
2021/10/01 10:10:56;;;;;;;2.40;1.42;;;19.90;99.90;;;;;;1930340;72;21428;-75
2021/10/01 10:13:24;;;;;;;2.77;1.45;;;20.40;99.90;;;;;;1956051;72;21106;-75
2021/10/01 10:15:50;;;;;;;4.08;1.30;;;20.00;99.90;;;;;;1927319;73;21118;-74
2021/10/01 10:18:16;;;;;;;3.10;1.47;;;20.70;99.90;;;;;;1939804;73;21176;-74
2021/10/01 10:20:42;;;;;;;3.17;1.57;;;20.50;99.90;;;;;;1946883;73;21051;-74
2021/10/01 10:23:08;;;;;;;1.52;1.17;;;20.30;99.90;;;;;;1934334;73;21128;-74
2021/10/01 10:25:35;;;;;;;3.15;1.30;;;20.30;99.90;;;;;;1943910;72;21075;-75
2021/10/01 10:28:01;;;;;;;2.00;1.10;;;20.30;99.90;;;;;;1945813;72;21054;-75
2021/10/01 10:30:27;;;;;;;4.67;1.40;;;21.40;99.90;;;;;;1936563;73;21046;-75
2021/10/01 10:32:53;;;;;;;5.75;1.37;;;22.10;99.90;;;;;;1930496;73;21231;-74
2021/10/01 10:35:22;;;;;;;4.15;1.20;;;21.70;99.90;;;;;;1940239;72;21078;-74
2021/10/01 10:37:53;;;;;;;2.90;1.10;;;21.90;99.90;;;;;;1938248;72;21160;-74
2021/10/01 10:40:18;;;;;;;3.55;1.17;;;22.10;99.90;;;;;;1940496;72;21159;-76
2021/10/01 10:42:47;;;;;;;2.95;1.20;;;22.30;99.90;;;;;;1936413;72;21077;-74
2021/10/01 10:45:14;;;;;;;4.70;1.20;;;22.50;99.90;;;;;;1935478;73;21075;-74
2021/10/01 10:47:41;;;;;;;3.15;1.20;;;21.80;99.90;;;;;;1935518;72;21052;-74
2021/10/01 10:50:07;;;;;;;1.27;1.00;;;21.80;99.90;;;;;;1934104;73;21074;-74
2021/10/01 10:52:36;;;;;;;15.10;1.65;;;22.10;99.90;;;;;;1958815;72;21208;-75
2021/10/01 10:55:01;;;;;;;3.05;1.22;;;22.00;99.90;;;;;;1942791;72;21139;-75
2021/10/01 10:57:28;;;;;;;2.60;0.90;;;22.00;99.90;;;;;;1937901;72;21155;-75
2021/10/01 10:59:55;;;;;;;1.35;0.93;;;22.30;99.90;;;;;;1945288;72;21542;-75
2021/10/01 11:02:32;;;;;;;2.40;1.15;;;22.50;99.90;;;;;;1933126;73;21087;-76
2021/10/01 11:04:58;;;;;;;1.40;0.95;;;22.90;99.90;;;;;;1934688;73;21103;-74
2021/10/01 11:07:24;;;;;;;1.92;0.80;;;22.80;99.90;;;;;;1945271;72;21069;-74
2021/10/01 11:09:50;;;;;;;1.67;1.00;;;22.60;99.90;;;;;;1922138;73;21149;-74
2021/10/01 11:12:16;;;;;;;4.87;0.93;;;22.60;99.90;;;;;;1940743;72;21156;-73
2021/10/01 11:14:43;;;;;;;2.37;0.80;;;23.00;99.90;;;;;;1937230;73;21087;-73
2021/10/01 11:17:09;;;;;;;2.98;0.90;;;23.50;99.90;;;;;;1940508;73;21085;-74
2021/10/01 11:19:35;;;;;;;2.42;0.82;;;22.90;99.90;;;;;;1944974;72;21192;-74
2021/10/01 11:22:01;;;;;;;1.25;0.80;;;23.70;99.90;;;;;;1945576;72;21135;-75
2021/10/01 11:24:27;;;;;;;3.58;0.70;;;24.10;99.90;;;;;;1939354;72;21477;-74
2021/10/01 11:26:53;;;;;;;1.32;0.60;;;23.70;99.90;;;;;;1928484;73;21563;-75
2021/10/01 11:29:19;;;;;;;1.72;0.90;;;23.80;99.90;;;;;;1928208;73;21481;-75
2021/10/01 11:31:46;;;;;;;2.42;0.68;;;23.80;99.90;;;;;;1936916;73;21059;-75
2021/10/01 11:34:12;;;;;;;0.95;0.68;;;24.20;97.30;;;;;;1940312;73;21074;-74
2021/10/01 11:36:39;;;;;;;2.00;0.85;;;23.90;97.20;;;;;;1949032;73;21081;-74
2021/10/01 11:39:05;;;;;;;2.52;0.60;;;23.90;96.00;;;;;;1937897;73;21164;-74
2021/10/01 11:41:31;;;;;;;2.42;0.78;;;24.00;96.80;;;;;;1930406;73;21485;-75
2021/10/01 11:44:00;;;;;;;9.55;0.82;;;24.00;95.90;;;;;;1941476;73;21454;-74
2021/10/01 11:46:25;;;;;;;2.25;0.80;;;23.90;95.90;;;;;;1944356;72;21170;-75
2021/10/01 11:48:51;;;;;;;1.30;0.53;;;24.10;96.00;;;;;;1925870;73;21134;-76
2021/10/01 11:51:17;;;;;;;0.78;0.50;;;24.00;95.20;;;;;;1946924;72;21166;-76
2021/10/01 11:53:43;;;;;;;5.72;1.10;;;24.60;93.50;;;;;;1936318;73;21158;-76
2021/10/01 11:56:09;;;;;;;0.90;0.60;;;24.50;93.80;;;;;;1926064;72;21077;-77
2021/10/01 11:58:35;;;;;;;1.02;0.50;;;25.00;93.30;;;;;;1929526;73;21138;-76
2021/10/01 12:01:02;;;;;;;0.75;0.53;;;25.20;92.60;;;;;;1944052;72;21230;-76
2021/10/01 12:03:28;;;;;;;0.78;0.75;;;25.50;91.70;;;;;;1942617;72;21183;-75
2021/10/01 12:05:55;;;;;;;1.55;0.70;;;25.70;90.20;;;;;;1936108;73;21172;-77
2021/10/01 12:08:23;;;;;;;2.55;0.60;;;25.70;90.70;;;;;;1929782;73;21082;-76
2021/10/01 12:10:49;;;;;;;5.12;0.80;;;25.50;90.00;;;;;;1935980;72;21203;-77
2021/10/01 12:13:22;;;;;;;0.82;0.50;;;25.70;90.10;;;;;;1925753;72;21070;-76
2021/10/01 12:15:43;;;;;;;1.35;0.65;;;25.60;90.10;;;;;;1933663;73;21408;-76
2021/10/01 12:18:09;;;;;;;5.22;0.80;;;25.80;88.60;;;;;;1937082;73;21498;-74
2021/10/01 12:20:35;;;;;;;1.57;0.62;;;25.70;88.20;;;;;;1929406;73;21478;-77
2021/10/01 12:23:02;;;;;;;0.70;0.53;;;26.00;89.40;;;;;;1938516;72;21137;-76
2021/10/01 12:25:28;;;;;;;1.12;0.60;;;26.00;87.30;;;;;;1921679;73;21074;-77
2021/10/01 12:27:54;;;;;;;1.75;0.50;;;26.20;84.60;;;;;;1919410;73;21062;-76
2021/10/01 12:30:20;;;;;;;7.22;1.00;;;26.10;85.10;;;;;;1932884;72;21143;-76
2021/10/01 12:32:47;;;;;;;1.05;0.53;;;25.40;88.20;;;;;;1925632;72;21062;-79
2021/10/01 12:35:13;;;;;;;1.62;0.65;;;25.30;90.60;;;;;;1925124;73;21055;-78
2021/10/01 12:37:41;;;;;;;1.27;0.57;;;25.60;89.80;;;;;;1934040;72;21078;-79
2021/10/01 12:40:07;;;;;;;1.95;0.78;;;26.10;86.00;;;;;;1947626;72;21069;-79
2021/10/01 12:42:33;;;;;;;2.45;0.88;;;26.70;85.60;;;;;;1954925;72;21221;-80
2021/10/01 12:44:59;;;;;;;1.92;0.72;;;27.00;84.30;;;;;;1936949;72;21038;-84
2021/10/01 12:47:25;;;;;;;1.20;0.60;;;26.60;82.90;;;;;;1939737;72;21117;-83
2021/10/01 12:49:51;;;;;;;2.60;0.70;;;26.80;82.40;;;;;;1931741;73;21065;-84
2021/10/01 12:52:17;;;;;;;1.15;0.60;;;26.60;83.00;;;;;;1943932;72;21065;-84
2021/10/01 12:54:44;;;;;;;2.12;0.60;;;26.50;82.80;;;;;;1925402;73;21070;-85
2021/10/01 12:57:10;;;;;;;0.50;0.50;;;26.50;85.10;;;;;;1939755;73;21082;-84
2021/10/01 12:59:36;;;;;;;1.22;0.80;;;26.60;82.90;;;;;;1930297;73;21043;-83
2021/10/01 13:02:02;;;;;;;1.35;0.90;;;26.90;82.90;;;;;;1936238;71;21267;-83
2021/10/01 13:04:29;;;;;;;0.62;0.62;;;27.50;78.20;;;;;;1926912;72;21082;-83
2021/10/01 13:06:55;;;;;;;3.55;1.00;;;27.20;79.10;;;;;;1928493;72;21077;-83
2021/10/01 13:09:21;;;;;;;1.40;0.98;;;26.80;80.90;;;;;;1934392;73;21140;-83
2021/10/01 13:11:47;;;;;;;2.42;0.70;;;25.90;85.40;;;;;;1928367;73;21066;-82
2021/10/01 13:14:13;;;;;;;1.90;0.78;;;26.60;84.90;;;;;;1940846;72;21066;-83
2021/10/01 13:16:39;;;;;;;1.92;0.75;;;26.90;83.70;;;;;;1931131;73;21156;-83
2021/10/01 13:19:12;;;;;;;1.22;0.78;;;26.40;83.80;;;;;;1929430;73;21093;-83
2021/10/01 13:21:33;;;;;;;1.10;0.78;;;26.70;83.80;;;;;;1929014;72;21505;-82
2021/10/01 13:24:00;;;;;;;1.15;0.82;;;26.80;83.40;;;;;;1939309;72;21461;-83
2021/10/01 13:26:26;;;;;;;1.47;0.75;;;26.90;82.40;;;;;;1926679;73;21143;-82
2021/10/01 13:28:52;;;;;;;0.95;0.80;;;26.60;82.90;;;;;;1932644;72;21089;-82
2021/10/01 13:31:18;;;;;;;2.05;0.78;;;26.60;83.80;;;;;;1943834;72;21071;-83
2021/10/01 13:33:44;;;;;;;2.75;1.00;;;26.50;83.30;;;;;;1947959;72;21069;-84
2021/10/01 13:36:11;;;;;;;4.50;1.10;;;26.50;82.90;;;;;;1928954;72;21078;-83
2021/10/01 13:38:37;;;;;;;6.37;1.02;;;26.40;84.00;;;;;;1962137;72;21098;-82
2021/10/01 13:41:03;;;;;;;3.15;0.93;;;27.00;82.30;;;;;;1949343;71;21046;-83
2021/10/01 13:43:29;;;;;;;1.00;0.88;;;27.30;81.70;;;;;;1956194;71;21131;-83
2021/10/01 13:45:55;;;;;;;0.98;0.88;;;27.90;81.70;;;;;;1930165;72;21065;-83
2021/10/01 13:48:21;;;;;;;4.03;1.40;;;27.80;81.50;;;;;;1932450;72;21099;-83
2021/10/01 13:50:47;;;;;;;1.52;1.30;;;28.20;79.60;;;;;;1946291;72;21528;-82
2021/10/01 13:53:13;;;;;;;1.80;0.93;;;28.00;79.30;;;;;;1935198;72;21062;-83
2021/10/01 13:55:40;;;;;;;1.55;1.20;;;27.90;78.30;;;;;;1942256;72;21131;-83
2021/10/01 13:58:06;;;;;;;2.02;1.17;;;27.70;80.10;;;;;;1953969;72;21128;-83
2021/10/01 14:00:32;;;;;;;1.20;1.10;;;27.40;80.70;;;;;;1925927;72;21133;-83
2021/10/01 14:02:58;;;;;;;1.25;1.05;;;27.70;80.10;;;;;;1915022;72;21077;-83
2021/10/01 14:05:24;;;;;;;3.33;1.00;;;28.00;79.80;;;;;;1945458;72;21070;-83
2021/10/01 14:07:50;;;;;;;2.20;1.20;;;27.70;79.70;;;;;;1931755;72;21077;-83
2021/10/01 14:10:16;;;;;;;3.42;1.32;;;27.30;81.40;;;;;;1927153;72;21140;-84
2021/10/01 14:12:43;;;;;;;1.72;1.20;;;26.90;83.60;;;;;;1947062;73;21192;-83
2021/10/01 14:15:10;;;;;;;2.85;1.20;;;26.80;83.30;;;;;;1945717;72;21474;-83
2021/10/01 14:17:36;;;;;;;1.50;1.10;;;26.20;86.60;;;;;;1946215;72;21082;-83
2021/10/01 14:20:02;;;;;;;2.77;1.00;;;26.60;85.70;;;;;;1915967;72;21063;-84
2021/10/01 14:22:30;;;;;;;4.40;1.42;;;26.30;85.10;;;;;;1936735;72;21160;-83
2021/10/01 14:24:56;;;;;;;6.00;1.20;;;26.20;86.60;;;;;;1944644;72;21079;-83